sensor_id;sensor_type;location;lat;lon;timestamp;P1;durP1;ratioP1;P2;durP2;ratioP2
72379;SDS011;60354;47.798;12.472;2022-09-24T00:00:42;5.68;;;3.15;;
72379;SDS011;60354;47.798;12.472;2022-09-24T00:03:08;5.38;;;2.90;;
72379;SDS011;60354;47.798;12.472;2022-09-24T00:05:38;3.63;;;2.70;;
72379;SDS011;60354;47.798;12.472;2022-09-24T00:08:05;3.92;;;2.90;;
72379;SDS011;60354;47.798;12.472;2022-09-24T00:10:35;3.42;;;2.53;;
72379;SDS011;60354;47.798;12.472;2022-09-24T00:13:02;5.15;;;2.75;;
72379;SDS011;60354;47.798;12.472;2022-09-24T00:15:28;4.45;;;2.50;;
72379;SDS011;60354;47.798;12.472;2022-09-24T00:17:53;3.60;;;2.45;;
72379;SDS011;60354;47.798;12.472;2022-09-24T00:20:19;5.47;;;2.50;;
72379;SDS011;60354;47.798;12.472;2022-09-24T00:22:46;4.57;;;2.55;;
72379;SDS011;60354;47.798;12.472;2022-09-24T00:25:12;3.33;;;2.50;;
72379;SDS011;60354;47.798;12.472;2022-09-24T00:27:56;3.60;;;2.13;;
72379;SDS011;60354;47.798;12.472;2022-09-24T00:30:21;4.10;;;2.30;;
72379;SDS011;60354;47.798;12.472;2022-09-24T00:32:47;5.07;;;2.42;;
72379;SDS011;60354;47.798;12.472;2022-09-24T00:35:12;5.93;;;2.22;;
72379;SDS011;60354;47.798;12.472;2022-09-24T00:37:38;3.25;;;2.20;;
72379;SDS011;60354;47.798;12.472;2022-09-24T00:40:03;5.97;;;2.40;;
72379;SDS011;60354;47.798;12.472;2022-09-24T00:42:30;4.82;;;2.20;;
72379;SDS011;60354;47.798;12.472;2022-09-24T00:44:56;4.70;;;2.40;;
72379;SDS011;60354;47.798;12.472;2022-09-24T00:47:27;5.05;;;2.63;;
72379;SDS011;60354;47.798;12.472;2022-09-24T00:49:57;3.53;;;2.40;;
72379;SDS011;60354;47.798;12.472;2022-09-24T00:52:37;4.18;;;2.40;;
72379;SDS011;60354;47.798;12.472;2022-09-24T00:55:11;4.25;;;2.60;;
72379;SDS011;60354;47.798;12.472;2022-09-24T00:57:38;4.65;;;2.30;;
72379;SDS011;60354;47.798;12.472;2022-09-24T01:00:06;3.85;;;2.50;;
72379;SDS011;60354;47.798;12.472;2022-09-24T01:02:33;3.03;;;2.42;;
72379;SDS011;60354;47.798;12.472;2022-09-24T01:05:01;5.15;;;2.50;;
72379;SDS011;60354;47.798;12.472;2022-09-24T01:07:27;4.07;;;2.00;;
72379;SDS011;60354;47.798;12.472;2022-09-24T01:09:53;3.25;;;2.33;;
72379;SDS011;60354;47.798;12.472;2022-09-24T01:12:34;2.83;;;2.30;;
72379;SDS011;60354;47.798;12.472;2022-09-24T01:15:23;4.60;;;2.13;;
72379;SDS011;60354;47.798;12.472;2022-09-24T01:17:57;6.07;;;2.15;;
72379;SDS011;60354;47.798;12.472;2022-09-24T01:28:48;3.05;;;2.13;;
72379;SDS011;60354;47.798;12.472;2022-09-24T01:31:24;6.30;;;2.47;;
72379;SDS011;60354;47.798;12.472;2022-09-24T01:33:54;3.30;;;2.10;;
72379;SDS011;60354;47.798;12.472;2022-09-24T01:36:22;4.43;;;2.50;;
72379;SDS011;60354;47.798;12.472;2022-09-24T01:38:50;4.05;;;2.20;;
72379;SDS011;60354;47.798;12.472;2022-09-24T01:41:18;5.90;;;2.35;;
72379;SDS011;60354;47.798;12.472;2022-09-24T01:43:45;4.65;;;2.20;;
72379;SDS011;60354;47.798;12.472;2022-09-24T01:46:12;3.63;;;2.10;;
72379;SDS011;60354;47.798;12.472;2022-09-24T01:48:40;4.07;;;2.42;;
72379;SDS011;60354;47.798;12.472;2022-09-24T01:53:48;5.70;;;2.33;;
72379;SDS011;60354;47.798;12.472;2022-09-24T01:56:26;4.03;;;2.38;;
72379;SDS011;60354;47.798;12.472;2022-09-24T01:58:56;6.13;;;2.47;;
72379;SDS011;60354;47.798;12.472;2022-09-24T02:01:28;7.80;;;2.60;;
72379;SDS011;60354;47.798;12.472;2022-09-24T02:03:58;4.60;;;2.65;;
72379;SDS011;60354;47.798;12.472;2022-09-24T02:06:32;4.60;;;2.58;;
72379;SDS011;60354;47.798;12.472;2022-09-24T02:09:02;4.57;;;2.10;;
72379;SDS011;60354;47.798;12.472;2022-09-24T02:11:28;5.05;;;2.45;;
72379;SDS011;60354;47.798;12.472;2022-09-24T02:14:08;3.55;;;2.30;;
72379;SDS011;60354;47.798;12.472;2022-09-24T02:16:43;4.82;;;2.40;;
72379;SDS011;60354;47.798;12.472;2022-09-24T02:19:14;2.97;;;2.33;;
72379;SDS011;60354;47.798;12.472;2022-09-24T02:21:42;3.40;;;2.28;;
72379;SDS011;60354;47.798;12.472;2022-09-24T02:24:15;3.83;;;2.50;;
72379;SDS011;60354;47.798;12.472;2022-09-24T02:26:43;5.03;;;2.30;;
72379;SDS011;60354;47.798;12.472;2022-09-24T02:29:09;4.05;;;2.63;;
72379;SDS011;60354;47.798;12.472;2022-09-24T02:31:37;5.38;;;2.50;;
72379;SDS011;60354;47.798;12.472;2022-09-24T02:34:10;5.22;;;2.50;;
72379;SDS011;60354;47.798;12.472;2022-09-24T02:37:06;4.18;;;2.30;;
72379;SDS011;60354;47.798;12.472;2022-09-24T02:39:32;3.90;;;2.30;;
72379;SDS011;60354;47.798;12.472;2022-09-24T02:41:58;3.10;;;2.20;;
72379;SDS011;60354;47.798;12.472;2022-09-24T02:44:25;3.38;;;2.40;;
72379;SDS011;60354;47.798;12.472;2022-09-24T02:46:51;6.88;;;2.47;;
72379;SDS011;60354;47.798;12.472;2022-09-24T02:49:16;3.47;;;2.22;;
72379;SDS011;60354;47.798;12.472;2022-09-24T02:51:42;4.05;;;2.30;;
72379;SDS011;60354;47.798;12.472;2022-09-24T02:54:08;3.67;;;2.33;;
72379;SDS011;60354;47.798;12.472;2022-09-24T02:56:34;4.28;;;2.40;;
72379;SDS011;60354;47.798;12.472;2022-09-24T02:59:00;3.95;;;2.50;;
72379;SDS011;60354;47.798;12.472;2022-09-24T03:01:27;3.95;;;2.25;;
72379;SDS011;60354;47.798;12.472;2022-09-24T03:03:53;4.28;;;2.40;;
72379;SDS011;60354;47.798;12.472;2022-09-24T03:06:19;3.20;;;2.40;;
72379;SDS011;60354;47.798;12.472;2022-09-24T03:08:45;3.38;;;2.22;;
72379;SDS011;60354;47.798;12.472;2022-09-24T03:11:11;3.45;;;2.35;;
72379;SDS011;60354;47.798;12.472;2022-09-24T03:13:37;4.50;;;2.30;;
72379;SDS011;60354;47.798;12.472;2022-09-24T03:16:04;4.10;;;2.38;;
72379;SDS011;60354;47.798;12.472;2022-09-24T03:18:31;5.30;;;2.33;;
72379;SDS011;60354;47.798;12.472;2022-09-24T03:20:57;3.45;;;2.33;;
72379;SDS011;60354;47.798;12.472;2022-09-24T03:23:28;4.82;;;2.30;;
72379;SDS011;60354;47.798;12.472;2022-09-24T03:25:54;3.25;;;2.20;;
72379;SDS011;60354;47.798;12.472;2022-09-24T03:28:20;4.03;;;2.35;;
72379;SDS011;60354;47.798;12.472;2022-09-24T03:30:45;7.53;;;2.25;;
72379;SDS011;60354;47.798;12.472;2022-09-24T03:35:56;2.92;;;2.20;;
72379;SDS011;60354;47.798;12.472;2022-09-24T03:38:23;3.80;;;2.17;;
72379;SDS011;60354;47.798;12.472;2022-09-24T03:40:48;8.38;;;2.20;;
72379;SDS011;60354;47.798;12.472;2022-09-24T03:43:14;6.30;;;2.80;;
72379;SDS011;60354;47.798;12.472;2022-09-24T03:45:39;3.38;;;2.50;;
72379;SDS011;60354;47.798;12.472;2022-09-24T03:48:05;6.90;;;2.47;;
72379;SDS011;60354;47.798;12.472;2022-09-24T03:50:31;3.10;;;2.40;;
72379;SDS011;60354;47.798;12.472;2022-09-24T03:52:59;6.32;;;2.30;;
72379;SDS011;60354;47.798;12.472;2022-09-24T03:55:25;3.92;;;2.55;;
72379;SDS011;60354;47.798;12.472;2022-09-24T03:57:50;4.28;;;2.53;;
72379;SDS011;60354;47.798;12.472;2022-09-24T04:00:16;6.95;;;2.63;;
72379;SDS011;60354;47.798;12.472;2022-09-24T04:02:41;7.10;;;2.90;;
72379;SDS011;60354;47.798;12.472;2022-09-24T04:05:07;5.30;;;2.83;;
72379;SDS011;60354;47.798;12.472;2022-09-24T04:07:32;4.10;;;2.50;;
72379;SDS011;60354;47.798;12.472;2022-09-24T04:09:58;3.53;;;2.33;;
72379;SDS011;60354;47.798;12.472;2022-09-24T04:12:23;3.83;;;2.53;;
72379;SDS011;60354;47.798;12.472;2022-09-24T04:14:49;4.47;;;2.35;;
72379;SDS011;60354;47.798;12.472;2022-09-24T04:17:14;3.20;;;2.28;;
72379;SDS011;60354;47.798;12.472;2022-09-24T04:19:41;5.78;;;3.40;;
72379;SDS011;60354;47.798;12.472;2022-09-24T04:22:07;4.45;;;2.63;;
72379;SDS011;60354;47.798;12.472;2022-09-24T04:24:32;3.85;;;2.30;;
72379;SDS011;60354;47.798;12.472;2022-09-24T04:26:58;6.10;;;2.50;;
72379;SDS011;60354;47.798;12.472;2022-09-24T04:29:23;4.15;;;2.25;;
72379;SDS011;60354;47.798;12.472;2022-09-24T04:31:49;4.15;;;2.40;;
72379;SDS011;60354;47.798;12.472;2022-09-24T04:34:14;5.20;;;2.30;;
72379;SDS011;60354;47.798;12.472;2022-09-24T04:36:40;3.70;;;2.63;;
72379;SDS011;60354;47.798;12.472;2022-09-24T04:39:05;5.97;;;2.75;;
72379;SDS011;60354;47.798;12.472;2022-09-24T04:41:31;3.38;;;2.70;;
72379;SDS011;60354;47.798;12.472;2022-09-24T04:43:59;5.50;;;2.70;;
72379;SDS011;60354;47.798;12.472;2022-09-24T04:46:24;5.18;;;2.28;;
72379;SDS011;60354;47.798;12.472;2022-09-24T04:48:50;5.13;;;2.70;;
72379;SDS011;60354;47.798;12.472;2022-09-24T04:51:15;6.22;;;2.88;;
72379;SDS011;60354;47.798;12.472;2022-09-24T04:53:43;4.43;;;2.70;;
72379;SDS011;60354;47.798;12.472;2022-09-24T04:56:11;3.95;;;2.60;;
72379;SDS011;60354;47.798;12.472;2022-09-24T04:58:37;3.08;;;2.40;;
72379;SDS011;60354;47.798;12.472;2022-09-24T05:01:03;6.70;;;2.75;;
72379;SDS011;60354;47.798;12.472;2022-09-24T05:03:29;4.95;;;2.60;;
72379;SDS011;60354;47.798;12.472;2022-09-24T05:05:54;6.07;;;2.60;;
72379;SDS011;60354;47.798;12.472;2022-09-24T05:08:21;3.92;;;2.65;;
72379;SDS011;60354;47.798;12.472;2022-09-24T05:10:46;4.30;;;2.70;;
72379;SDS011;60354;47.798;12.472;2022-09-24T05:13:12;3.35;;;2.40;;
72379;SDS011;60354;47.798;12.472;2022-09-24T05:15:38;3.97;;;2.50;;
72379;SDS011;60354;47.798;12.472;2022-09-24T05:18:03;4.20;;;2.70;;
72379;SDS011;60354;47.798;12.472;2022-09-24T05:20:30;4.18;;;2.40;;
72379;SDS011;60354;47.798;12.472;2022-09-24T05:22:56;3.13;;;2.50;;
72379;SDS011;60354;47.798;12.472;2022-09-24T05:25:21;4.72;;;2.92;;
72379;SDS011;60354;47.798;12.472;2022-09-24T05:27:48;3.50;;;2.65;;
72379;SDS011;60354;47.798;12.472;2022-09-24T05:30:18;5.60;;;2.45;;
72379;SDS011;60354;47.798;12.472;2022-09-24T05:32:46;3.75;;;2.80;;
72379;SDS011;60354;47.798;12.472;2022-09-24T05:35:16;5.10;;;3.00;;
72379;SDS011;60354;47.798;12.472;2022-09-24T05:37:43;5.53;;;2.70;;
72379;SDS011;60354;47.798;12.472;2022-09-24T05:40:10;4.95;;;2.70;;
72379;SDS011;60354;47.798;12.472;2022-09-24T05:43:00;4.30;;;2.75;;
72379;SDS011;60354;47.798;12.472;2022-09-24T05:45:27;4.78;;;3.40;;
72379;SDS011;60354;47.798;12.472;2022-09-24T05:47:55;6.22;;;3.60;;
72379;SDS011;60354;47.798;12.472;2022-09-24T05:50:21;4.03;;;2.60;;
72379;SDS011;60354;47.798;12.472;2022-09-24T05:52:47;7.35;;;3.80;;
72379;SDS011;60354;47.798;12.472;2022-09-24T05:55:13;5.22;;;3.63;;
72379;SDS011;60354;47.798;12.472;2022-09-24T05:57:38;5.90;;;3.65;;
72379;SDS011;60354;47.798;12.472;2022-09-24T06:00:04;5.03;;;3.22;;
72379;SDS011;60354;47.798;12.472;2022-09-24T06:02:37;5.28;;;3.10;;
72379;SDS011;60354;47.798;12.472;2022-09-24T06:05:02;4.93;;;2.75;;
72379;SDS011;60354;47.798;12.472;2022-09-24T06:07:28;4.97;;;3.20;;
72379;SDS011;60354;47.798;12.472;2022-09-24T06:09:53;7.10;;;3.50;;
72379;SDS011;60354;47.798;12.472;2022-09-24T06:12:19;4.40;;;3.28;;
72379;SDS011;60354;47.798;12.472;2022-09-24T06:14:46;4.03;;;3.05;;
72379;SDS011;60354;47.798;12.472;2022-09-24T06:17:11;5.15;;;2.97;;
72379;SDS011;60354;47.798;12.472;2022-09-24T06:19:37;4.38;;;2.60;;
72379;SDS011;60354;47.798;12.472;2022-09-24T06:22:03;4.18;;;2.65;;
72379;SDS011;60354;47.798;12.472;2022-09-24T06:24:28;4.93;;;2.22;;
72379;SDS011;60354;47.798;12.472;2022-09-24T06:26:54;6.38;;;2.47;;
72379;SDS011;60354;47.798;12.472;2022-09-24T06:29:19;5.10;;;2.80;;
72379;SDS011;60354;47.798;12.472;2022-09-24T06:31:45;4.35;;;2.60;;
72379;SDS011;60354;47.798;12.472;2022-09-24T06:34:11;4.78;;;2.67;;
72379;SDS011;60354;47.798;12.472;2022-09-24T06:36:37;5.45;;;2.67;;
72379;SDS011;60354;47.798;12.472;2022-09-24T06:39:02;2.97;;;2.33;;
72379;SDS011;60354;47.798;12.472;2022-09-24T06:41:28;3.67;;;2.30;;
72379;SDS011;60354;47.798;12.472;2022-09-24T06:43:54;5.40;;;2.92;;
72379;SDS011;60354;47.798;12.472;2022-09-24T06:46:20;4.65;;;2.50;;
72379;SDS011;60354;47.798;12.472;2022-09-24T06:48:47;3.70;;;2.30;;
72379;SDS011;60354;47.798;12.472;2022-09-24T06:51:13;6.82;;;2.72;;
72379;SDS011;60354;47.798;12.472;2022-09-24T06:53:39;3.88;;;2.50;;
72379;SDS011;60354;47.798;12.472;2022-09-24T06:56:04;6.55;;;2.75;;
72379;SDS011;60354;47.798;12.472;2022-09-24T06:58:30;5.80;;;2.45;;
72379;SDS011;60354;47.798;12.472;2022-09-24T07:00:57;4.30;;;2.30;;
72379;SDS011;60354;47.798;12.472;2022-09-24T07:03:25;3.80;;;2.75;;
72379;SDS011;60354;47.798;12.472;2022-09-24T07:05:52;4.60;;;2.70;;
72379;SDS011;60354;47.798;12.472;2022-09-24T07:08:17;12.32;;;3.10;;
72379;SDS011;60354;47.798;12.472;2022-09-24T07:10:43;5.10;;;3.17;;
72379;SDS011;60354;47.798;12.472;2022-09-24T07:13:13;6.97;;;3.30;;
72379;SDS011;60354;47.798;12.472;2022-09-24T07:15:40;5.22;;;3.28;;
72379;SDS011;60354;47.798;12.472;2022-09-24T07:18:06;5.10;;;3.25;;
72379;SDS011;60354;47.798;12.472;2022-09-24T07:20:32;6.00;;;3.03;;
72379;SDS011;60354;47.798;12.472;2022-09-24T07:23:01;5.05;;;3.13;;
72379;SDS011;60354;47.798;12.472;2022-09-24T07:25:30;3.63;;;2.50;;
72379;SDS011;60354;47.798;12.472;2022-09-24T07:27:59;3.95;;;2.40;;
72379;SDS011;60354;47.798;12.472;2022-09-24T07:30:29;4.40;;;2.80;;
72379;SDS011;60354;47.798;12.472;2022-09-24T07:32:55;6.18;;;3.08;;
72379;SDS011;60354;47.798;12.472;2022-09-24T07:35:21;6.40;;;3.35;;
72379;SDS011;60354;47.798;12.472;2022-09-24T07:37:47;6.07;;;3.05;;
72379;SDS011;60354;47.798;12.472;2022-09-24T07:40:13;5.57;;;2.70;;
72379;SDS011;60354;47.798;12.472;2022-09-24T07:42:44;3.60;;;2.63;;
72379;SDS011;60354;47.798;12.472;2022-09-24T07:45:12;5.07;;;3.35;;
72379;SDS011;60354;47.798;12.472;2022-09-24T07:47:37;4.10;;;2.70;;
72379;SDS011;60354;47.798;12.472;2022-09-24T07:50:03;4.35;;;2.75;;
72379;SDS011;60354;47.798;12.472;2022-09-24T07:52:29;4.10;;;2.75;;
72379;SDS011;60354;47.798;12.472;2022-09-24T07:54:55;8.02;;;3.10;;
72379;SDS011;60354;47.798;12.472;2022-09-24T07:57:20;4.70;;;2.97;;
72379;SDS011;60354;47.798;12.472;2022-09-24T07:59:46;5.05;;;2.70;;
72379;SDS011;60354;47.798;12.472;2022-09-24T08:02:16;4.40;;;2.42;;
72379;SDS011;60354;47.798;12.472;2022-09-24T08:04:42;3.97;;;2.50;;
72379;SDS011;60354;47.798;12.472;2022-09-24T08:07:08;3.05;;;2.40;;
72379;SDS011;60354;47.798;12.472;2022-09-24T08:09:34;3.17;;;2.50;;
72379;SDS011;60354;47.798;12.472;2022-09-24T08:12:00;6.53;;;2.50;;
72379;SDS011;60354;47.798;12.472;2022-09-24T08:14:26;3.95;;;2.80;;
72379;SDS011;60354;47.798;12.472;2022-09-24T08:16:51;6.22;;;3.10;;
72379;SDS011;60354;47.798;12.472;2022-09-24T08:19:17;3.80;;;2.40;;
72379;SDS011;60354;47.798;12.472;2022-09-24T08:21:42;4.60;;;2.35;;
72379;SDS011;60354;47.798;12.472;2022-09-24T08:24:07;5.10;;;2.25;;
72379;SDS011;60354;47.798;12.472;2022-09-24T08:26:33;5.20;;;2.20;;
72379;SDS011;60354;47.798;12.472;2022-09-24T08:28:59;3.78;;;2.30;;
72379;SDS011;60354;47.798;12.472;2022-09-24T08:31:24;4.15;;;2.30;;
72379;SDS011;60354;47.798;12.472;2022-09-24T08:33:51;4.07;;;2.30;;
72379;SDS011;60354;47.798;12.472;2022-09-24T08:36:16;8.88;;;2.50;;
72379;SDS011;60354;47.798;12.472;2022-09-24T08:38:42;3.10;;;2.08;;
72379;SDS011;60354;47.798;12.472;2022-09-24T08:46:15;5.75;;;2.20;;
72379;SDS011;60354;47.798;12.472;2022-09-24T08:49:27;4.80;;;2.47;;
72379;SDS011;60354;47.798;12.472;2022-09-24T08:54:41;3.78;;;2.42;;
72379;SDS011;60354;47.798;12.472;2022-09-24T08:57:13;3.20;;;2.30;;
72379;SDS011;60354;47.798;12.472;2022-09-24T08:59:46;3.10;;;2.38;;
72379;SDS011;60354;47.798;12.472;2022-09-24T09:10:21;4.38;;;2.30;;
72379;SDS011;60354;47.798;12.472;2022-09-24T09:12:56;2.83;;;2.30;;
72379;SDS011;60354;47.798;12.472;2022-09-24T09:15:27;3.97;;;1.95;;
72379;SDS011;60354;47.798;12.472;2022-09-24T09:18:03;4.97;;;2.30;;
72379;SDS011;60354;47.798;12.472;2022-09-24T09:20:49;4.00;;;2.40;;
72379;SDS011;60354;47.798;12.472;2022-09-24T09:23:16;4.75;;;2.50;;
72379;SDS011;60354;47.798;12.472;2022-09-24T09:25:55;3.33;;;2.30;;
72379;SDS011;60354;47.798;12.472;2022-09-24T09:28:24;4.00;;;2.30;;
72379;SDS011;60354;47.798;12.472;2022-09-24T09:46:50;4.35;;;2.20;;
72379;SDS011;60354;47.798;12.472;2022-09-24T09:49:22;3.47;;;2.10;;
72379;SDS011;60354;47.798;12.472;2022-09-24T09:54:34;3.58;;;2.40;;
72379;SDS011;60354;47.798;12.472;2022-09-24T09:57:00;3.45;;;2.40;;
72379;SDS011;60354;47.798;12.472;2022-09-24T09:59:26;3.00;;;2.03;;
72379;SDS011;60354;47.798;12.472;2022-09-24T10:01:53;4.57;;;2.00;;
72379;SDS011;60354;47.798;12.472;2022-09-24T10:07:16;5.18;;;2.00;;
72379;SDS011;60354;47.798;12.472;2022-09-24T10:09:42;3.65;;;2.10;;
72379;SDS011;60354;47.798;12.472;2022-09-24T10:12:14;3.33;;;2.00;;
72379;SDS011;60354;47.798;12.472;2022-09-24T10:14:40;3.25;;;2.50;;
72379;SDS011;60354;47.798;12.472;2022-09-24T10:17:09;6.93;;;2.20;;
72379;SDS011;60354;47.798;12.472;2022-09-24T10:19:37;2.75;;;2.00;;
72379;SDS011;60354;47.798;12.472;2022-09-24T10:22:07;3.53;;;2.17;;
72379;SDS011;60354;47.798;12.472;2022-09-24T10:24:40;3.42;;;2.13;;
72379;SDS011;60354;47.798;12.472;2022-09-24T10:27:17;3.95;;;2.25;;
72379;SDS011;60354;47.798;12.472;2022-09-24T10:29:50;3.95;;;2.15;;
72379;SDS011;60354;47.798;12.472;2022-09-24T10:32:37;2.97;;;2.00;;
72379;SDS011;60354;47.798;12.472;2022-09-24T10:35:13;8.82;;;2.58;;
72379;SDS011;60354;47.798;12.472;2022-09-24T10:37:54;4.32;;;2.40;;
72379;SDS011;60354;47.798;12.472;2022-09-24T10:40:22;3.05;;;2.10;;
72379;SDS011;60354;47.798;12.472;2022-09-24T10:43:01;6.82;;;2.47;;
72379;SDS011;60354;47.798;12.472;2022-09-24T10:48:31;3.20;;;2.10;;
72379;SDS011;60354;47.798;12.472;2022-09-24T10:54:01;5.38;;;2.50;;
72379;SDS011;60354;47.798;12.472;2022-09-24T10:56:51;4.32;;;2.63;;
72379;SDS011;60354;47.798;12.472;2022-09-24T11:04:31;5.60;;;3.13;;
72379;SDS011;60354;47.798;12.472;2022-09-24T11:18:09;5.80;;;3.38;;
72379;SDS011;60354;47.798;12.472;2022-09-24T11:23:31;3.63;;;2.90;;
72379;SDS011;60354;47.798;12.472;2022-09-24T11:42:48;5.47;;;3.28;;
72379;SDS011;60354;47.798;12.472;2022-09-24T11:58:46;7.25;;;3.35;;
72379;SDS011;60354;47.798;12.472;2022-09-24T12:01:38;4.90;;;3.80;;
72379;SDS011;60354;47.798;12.472;2022-09-24T12:04:23;10.65;;;3.58;;
72379;SDS011;60354;47.798;12.472;2022-09-24T12:09:40;4.55;;;3.10;;
72379;SDS011;60354;47.798;12.472;2022-09-24T12:12:13;4.88;;;3.10;;
72379;SDS011;60354;47.798;12.472;2022-09-24T12:14:48;4.95;;;2.70;;
72379;SDS011;60354;47.798;12.472;2022-09-24T12:17:53;4.35;;;2.60;;
72379;SDS011;60354;47.798;12.472;2022-09-24T12:20:17;6.07;;;2.35;;
72379;SDS011;60354;47.798;12.472;2022-09-24T12:22:51;5.43;;;2.50;;
72379;SDS011;60354;47.798;12.472;2022-09-24T12:25:25;4.20;;;2.30;;
72379;SDS011;60354;47.798;12.472;2022-09-24T12:27:54;5.88;;;2.80;;
72379;SDS011;60354;47.798;12.472;2022-09-24T12:38:44;9.15;;;5.45;;
72379;SDS011;60354;47.798;12.472;2022-09-24T12:46:54;11.80;;;4.38;;
72379;SDS011;60354;47.798;12.472;2022-09-24T12:54:42;7.25;;;4.22;;
72379;SDS011;60354;47.798;12.472;2022-09-24T12:57:19;7.53;;;4.68;;
72379;SDS011;60354;47.798;12.472;2022-09-24T12:59:54;8.95;;;3.60;;
72379;SDS011;60354;47.798;12.472;2022-09-24T13:02:25;5.68;;;4.60;;
72379;SDS011;60354;47.798;12.472;2022-09-24T13:05:14;7.20;;;5.07;;
72379;SDS011;60354;47.798;12.472;2022-09-24T13:10:29;5.43;;;4.05;;
72379;SDS011;60354;47.798;12.472;2022-09-24T13:12:57;7.65;;;3.75;;
72379;SDS011;60354;47.798;12.472;2022-09-24T13:15:36;8.15;;;4.22;;
72379;SDS011;60354;47.798;12.472;2022-09-24T13:20:35;6.70;;;4.30;;
72379;SDS011;60354;47.798;12.472;2022-09-24T13:26:44;7.07;;;3.80;;
72379;SDS011;60354;47.798;12.472;2022-09-24T13:29:03;4.47;;;2.90;;
72379;SDS011;60354;47.798;12.472;2022-09-24T13:37:03;5.75;;;3.80;;
72379;SDS011;60354;47.798;12.472;2022-09-24T13:44:58;5.85;;;4.03;;
72379;SDS011;60354;47.798;12.472;2022-09-24T13:50:13;4.88;;;3.60;;
72379;SDS011;60354;47.798;12.472;2022-09-24T13:52:43;6.32;;;3.38;;
72379;SDS011;60354;47.798;12.472;2022-09-24T13:55:16;6.25;;;3.60;;
72379;SDS011;60354;47.798;12.472;2022-09-24T13:57:46;7.10;;;3.85;;
72379;SDS011;60354;47.798;12.472;2022-09-24T14:00:20;6.43;;;3.45;;
72379;SDS011;60354;47.798;12.472;2022-09-24T14:05:26;4.22;;;3.35;;
72379;SDS011;60354;47.798;12.472;2022-09-24T14:07:59;5.18;;;3.70;;
72379;SDS011;60354;47.798;12.472;2022-09-24T14:10:28;17.15;;;8.85;;
72379;SDS011;60354;47.798;12.472;2022-09-24T14:18:58;8.85;;;5.05;;
72379;SDS011;60354;47.798;12.472;2022-09-24T14:24:18;6.43;;;3.83;;
72379;SDS011;60354;47.798;12.472;2022-09-24T14:27:09;8.52;;;4.95;;
72379;SDS011;60354;47.798;12.472;2022-09-24T14:29:59;7.75;;;4.60;;
72379;SDS011;60354;47.798;12.472;2022-09-24T14:32:31;7.22;;;3.90;;
72379;SDS011;60354;47.798;12.472;2022-09-24T14:35:05;5.88;;;3.55;;
72379;SDS011;60354;47.798;12.472;2022-09-24T14:37:33;5.60;;;3.90;;
72379;SDS011;60354;47.798;12.472;2022-09-24T14:40:04;12.95;;;6.68;;
72379;SDS011;60354;47.798;12.472;2022-09-24T14:42:37;11.88;;;4.70;;
72379;SDS011;60354;47.798;12.472;2022-09-24T14:45:38;5.97;;;3.70;;
72379;SDS011;60354;47.798;12.472;2022-09-24T14:49:01;7.47;;;5.00;;
72379;SDS011;60354;47.798;12.472;2022-09-24T14:51:03;9.25;;;5.03;;
72379;SDS011;60354;47.798;12.472;2022-09-24T14:53:35;11.50;;;5.55;;
72379;SDS011;60354;47.798;12.472;2022-09-24T14:59:45;9.90;;;4.55;;
72379;SDS011;60354;47.798;12.472;2022-09-24T15:02:02;7.95;;;4.50;;
72379;SDS011;60354;47.798;12.472;2022-09-24T15:04:59;7.22;;;4.15;;
72379;SDS011;60354;47.798;12.472;2022-09-24T15:07:27;7.68;;;4.45;;
72379;SDS011;60354;47.798;12.472;2022-09-24T15:10:04;7.40;;;4.53;;
72379;SDS011;60354;47.798;12.472;2022-09-24T15:12:36;8.80;;;4.45;;
72379;SDS011;60354;47.798;12.472;2022-09-24T15:17:41;13.55;;;6.80;;
72379;SDS011;60354;47.798;12.472;2022-09-24T15:20:08;10.80;;;5.00;;
72379;SDS011;60354;47.798;12.472;2022-09-24T15:22:36;8.27;;;4.20;;
72379;SDS011;60354;47.798;12.472;2022-09-24T15:25:02;9.73;;;4.40;;
72379;SDS011;60354;47.798;12.472;2022-09-24T15:29:55;5.88;;;4.10;;
72379;SDS011;60354;47.798;12.472;2022-09-24T15:32:27;11.38;;;5.75;;
72379;SDS011;60354;47.798;12.472;2022-09-24T15:35:00;9.77;;;5.50;;
72379;SDS011;60354;47.798;12.472;2022-09-24T15:37:29;10.43;;;5.38;;
72379;SDS011;60354;47.798;12.472;2022-09-24T15:40:33;14.02;;;8.07;;
72379;SDS011;60354;47.798;12.472;2022-09-24T15:42:55;13.60;;;8.32;;
72379;SDS011;60354;47.798;12.472;2022-09-24T15:45:21;9.63;;;6.40;;
72379;SDS011;60354;47.798;12.472;2022-09-24T15:47:48;12.65;;;7.50;;
72379;SDS011;60354;47.798;12.472;2022-09-24T15:50:14;10.07;;;6.13;;
72379;SDS011;60354;47.798;12.472;2022-09-24T15:52:57;21.17;;;12.48;;
72379;SDS011;60354;47.798;12.472;2022-09-24T15:55:34;21.23;;;12.10;;
72379;SDS011;60354;47.798;12.472;2022-09-24T15:58:33;7.75;;;5.40;;
72379;SDS011;60354;47.798;12.472;2022-09-24T16:01:13;5.57;;;4.00;;
72379;SDS011;60354;47.798;12.472;2022-09-24T16:06:29;6.22;;;3.60;;
72379;SDS011;60354;47.798;12.472;2022-09-24T16:08:57;6.32;;;3.70;;
72379;SDS011;60354;47.798;12.472;2022-09-24T16:11:26;5.53;;;3.72;;
72379;SDS011;60354;47.798;12.472;2022-09-24T16:13:51;4.82;;;3.63;;
72379;SDS011;60354;47.798;12.472;2022-09-24T16:16:26;7.20;;;4.10;;
72379;SDS011;60354;47.798;12.472;2022-09-24T16:18:57;5.40;;;3.50;;
72379;SDS011;60354;47.798;12.472;2022-09-24T16:21:30;5.60;;;3.85;;
72379;SDS011;60354;47.798;12.472;2022-09-24T16:24:17;5.53;;;4.40;;
72379;SDS011;60354;47.798;12.472;2022-09-24T16:26:45;5.93;;;4.07;;
72379;SDS011;60354;47.798;12.472;2022-09-24T16:29:12;5.60;;;4.03;;
72379;SDS011;60354;47.798;12.472;2022-09-24T16:31:44;5.15;;;3.70;;
72379;SDS011;60354;47.798;12.472;2022-09-24T16:34:11;6.38;;;3.40;;
72379;SDS011;60354;47.798;12.472;2022-09-24T16:36:37;5.80;;;3.40;;
72379;SDS011;60354;47.798;12.472;2022-09-24T16:39:02;4.70;;;3.38;;
72379;SDS011;60354;47.798;12.472;2022-09-24T16:41:28;7.38;;;4.93;;
72379;SDS011;60354;47.798;12.472;2022-09-24T16:43:58;8.18;;;4.00;;
72379;SDS011;60354;47.798;12.472;2022-09-24T16:46:28;4.65;;;3.45;;
72379;SDS011;60354;47.798;12.472;2022-09-24T16:48:56;5.53;;;3.65;;
72379;SDS011;60354;47.798;12.472;2022-09-24T16:51:25;6.25;;;4.10;;
72379;SDS011;60354;47.798;12.472;2022-09-24T16:53:54;6.15;;;3.53;;
72379;SDS011;60354;47.798;12.472;2022-09-24T16:56:20;7.70;;;3.83;;
72379;SDS011;60354;47.798;12.472;2022-09-24T16:58:46;4.35;;;3.30;;
72379;SDS011;60354;47.798;12.472;2022-09-24T17:01:13;5.93;;;3.58;;
72379;SDS011;60354;47.798;12.472;2022-09-24T17:03:40;6.20;;;3.83;;
72379;SDS011;60354;47.798;12.472;2022-09-24T17:06:06;6.97;;;3.80;;
72379;SDS011;60354;47.798;12.472;2022-09-24T17:08:32;5.90;;;3.70;;
72379;SDS011;60354;47.798;12.472;2022-09-24T17:11:18;5.80;;;3.50;;
72379;SDS011;60354;47.798;12.472;2022-09-24T17:13:44;7.95;;;4.00;;
72379;SDS011;60354;47.798;12.472;2022-09-24T17:16:11;4.22;;;3.15;;
72379;SDS011;60354;47.798;12.472;2022-09-24T17:18:37;10.82;;;3.70;;
72379;SDS011;60354;47.798;12.472;2022-09-24T17:21:04;7.22;;;3.67;;
72379;SDS011;60354;47.798;12.472;2022-09-24T17:23:31;5.93;;;3.50;;
72379;SDS011;60354;47.798;12.472;2022-09-24T17:26:03;9.27;;;5.90;;
72379;SDS011;60354;47.798;12.472;2022-09-24T17:28:34;15.15;;;9.98;;
72379;SDS011;60354;47.798;12.472;2022-09-24T17:31:01;10.88;;;7.88;;
72379;SDS011;60354;47.798;12.472;2022-09-24T17:33:27;15.63;;;9.43;;
72379;SDS011;60354;47.798;12.472;2022-09-24T17:35:54;16.35;;;8.52;;
72379;SDS011;60354;47.798;12.472;2022-09-24T17:38:20;6.90;;;5.50;;
72379;SDS011;60354;47.798;12.472;2022-09-24T17:40:54;7.70;;;5.20;;